createdAt,value
2023-03-19T00:01:35.255Z,7.10
2023-03-19T00:04:04.878Z,7.00
2023-03-19T00:06:34.885Z,6.80
2023-03-19T00:09:04.020Z,6.60
2023-03-19T00:11:34.549Z,6.50
2023-03-19T00:14:03.180Z,6.50
2023-03-19T00:16:32.248Z,6.30
2023-03-19T00:19:02.611Z,6.10
2023-03-19T00:21:31.323Z,6.00
2023-03-19T00:24:02.898Z,5.90
2023-03-19T00:26:34.737Z,6.00
2023-03-19T00:29:05.322Z,5.90
2023-03-19T00:31:36.392Z,5.90
2023-03-19T00:34:05.829Z,5.80
2023-03-19T00:36:36.312Z,5.80
2023-03-19T00:39:06.848Z,5.80
2023-03-19T00:41:39.220Z,5.70
2023-03-19T00:44:08.887Z,5.70
2023-03-19T00:46:37.451Z,5.60
2023-03-19T00:49:07.429Z,5.60
2023-03-19T00:51:37.476Z,5.60
2023-03-19T00:54:06.657Z,5.60
2023-03-19T00:56:35.552Z,5.60
2023-03-19T00:59:06.287Z,5.60
2023-03-19T01:01:36.394Z,5.60
2023-03-19T01:04:06.273Z,5.70
2023-03-19T01:06:36.616Z,5.70
2023-03-19T01:09:06.641Z,5.80
2023-03-19T01:11:36.741Z,5.80
2023-03-19T01:14:07.256Z,5.70
2023-03-19T01:16:36.196Z,5.80
2023-03-19T01:19:06.293Z,5.70
2023-03-19T01:21:36.442Z,5.60
2023-03-19T01:24:05.698Z,5.60
2023-03-19T01:26:34.330Z,5.50
2023-03-19T01:29:17.627Z,5.50
2023-03-19T01:31:48.431Z,5.40
2023-03-19T01:34:33.508Z,5.30
2023-03-19T01:37:10.899Z,5.30
2023-03-19T01:39:40.546Z,5.20
2023-03-19T01:42:13.094Z,5.20
2023-03-19T01:45:34.969Z,5.10
2023-03-19T01:48:44.538Z,5.10
2023-03-19T01:51:19.362Z,5.20
2023-03-19T01:54:11.494Z,5.30
2023-03-19T01:57:11.385Z,5.40
2023-03-19T02:00:14.448Z,5.40
2023-03-19T02:02:50.852Z,5.60
2023-03-19T02:05:41.014Z,5.70
2023-03-19T02:08:16.528Z,5.80
2023-03-19T02:10:49.228Z,5.80
2023-03-19T02:13:18.587Z,5.80
2023-03-19T02:15:48.598Z,5.80
2023-03-19T02:18:19.321Z,5.70
2023-03-19T02:20:57.087Z,5.70
2023-03-19T02:23:38.179Z,5.60
2023-03-19T02:26:19.537Z,5.50
2023-03-19T02:28:52.159Z,5.40
2023-03-19T02:31:30.652Z,5.30
2023-03-19T02:34:01.785Z,5.20
2023-03-19T02:36:39.220Z,5.20
2023-03-19T02:39:19.536Z,5.10
2023-03-19T02:41:51.995Z,4.90
2023-03-19T02:44:20.877Z,4.80
2023-03-19T02:46:52.761Z,4.80
2023-03-19T02:49:24.722Z,4.70
2023-03-19T02:51:53.436Z,4.60
2023-03-19T02:54:23.940Z,4.60
2023-03-19T02:56:54.163Z,4.60
2023-03-19T02:59:25.241Z,4.40
2023-03-19T03:01:54.772Z,4.40
2023-03-19T03:04:27.036Z,4.50
2023-03-19T03:06:56.319Z,4.60
2023-03-19T03:09:24.964Z,4.60
2023-03-19T03:11:56.373Z,4.70
2023-03-19T03:14:27.124Z,4.70
2023-03-19T03:16:57.344Z,4.80
2023-03-19T03:19:26.001Z,4.80
2023-03-19T03:21:54.347Z,4.80
2023-03-19T03:24:24.828Z,4.80
2023-03-19T03:26:55.172Z,4.90
2023-03-19T03:29:23.725Z,4.80
2023-03-19T03:31:52.377Z,4.70
2023-03-19T03:34:21.233Z,4.60
2023-03-19T03:36:51.004Z,4.70
2023-03-19T03:39:20.402Z,4.60
2023-03-19T03:41:49.092Z,4.60
2023-03-19T03:44:19.531Z,4.50
2023-03-19T03:46:48.381Z,4.40
2023-03-19T03:49:17.102Z,4.40
2023-03-19T03:51:46.793Z,4.30
2023-03-19T03:54:15.507Z,4.40
2023-03-19T03:56:44.897Z,4.40
2023-03-19T03:59:15.425Z,4.40
2023-03-19T04:01:46.494Z,4.40
2023-03-19T04:04:15.744Z,4.50
2023-03-19T04:06:46.130Z,4.60
2023-03-19T04:09:33.296Z,4.70
2023-03-19T04:12:04.127Z,4.80
2023-03-19T04:14:32.694Z,5.00
2023-03-19T04:17:02.649Z,5.10
2023-03-19T04:19:31.952Z,5.10
2023-03-19T04:22:03.743Z,5.20
2023-03-19T04:24:33.757Z,5.30
2023-03-19T04:27:02.645Z,5.30
2023-03-19T04:29:32.123Z,5.40
2023-03-19T04:32:05.670Z,5.50
2023-03-19T04:34:36.457Z,5.60
2023-03-19T04:37:12.197Z,5.70
2023-03-19T04:39:48.892Z,5.70
2023-03-19T04:42:17.224Z,5.70
2023-03-19T04:44:53.535Z,5.80
2023-03-19T04:47:24.220Z,5.90
2023-03-19T04:50:03.905Z,5.90
2023-03-19T04:52:35.074Z,5.90
2023-03-19T04:55:05.851Z,5.90
2023-03-19T04:57:46.124Z,5.90
2023-03-19T05:00:20.848Z,6.00
2023-03-19T05:02:52.605Z,6.00
2023-03-19T05:05:22.181Z,6.10
2023-03-19T05:07:51.070Z,6.10
2023-03-19T05:10:21.181Z,6.10
2023-03-19T05:12:50.346Z,6.20
2023-03-19T05:15:20.157Z,6.10
2023-03-19T05:18:10.917Z,6.10
2023-03-19T05:20:59.782Z,6.20
2023-03-19T05:23:29.597Z,6.20
2023-03-19T05:26:09.996Z,6.20
2023-03-19T05:28:57.627Z,6.30
2023-03-19T05:31:35.617Z,6.30
2023-03-19T05:34:06.148Z,6.30
2023-03-19T05:36:35.895Z,6.40
2023-03-19T05:39:13.760Z,6.40
2023-03-19T05:41:44.834Z,6.40
2023-03-19T05:44:18.053Z,6.40
2023-03-19T05:47:04.186Z,6.50
2023-03-19T05:49:38.703Z,6.50
2023-03-19T05:52:08.002Z,6.60
2023-03-19T05:54:37.076Z,6.60
2023-03-19T05:57:32.077Z,6.60
2023-03-19T06:00:14.121Z,6.50
2023-03-19T06:02:46.276Z,6.60
2023-03-19T06:05:35.563Z,6.60
2023-03-19T06:08:17.169Z,6.60
2023-03-19T06:10:56.067Z,6.70
2023-03-19T06:13:24.672Z,6.70
2023-03-19T06:16:13.434Z,6.70
2023-03-19T06:18:48.805Z,6.70
2023-03-19T06:21:22.984Z,6.80
2023-03-19T06:23:52.071Z,6.80
2023-03-19T06:26:27.229Z,6.80
2023-03-19T06:28:58.932Z,6.70
2023-03-19T06:31:27.855Z,6.80
2023-03-19T06:33:57.817Z,6.80
2023-03-19T06:36:34.011Z,6.90
2023-03-19T06:39:04.878Z,6.90
2023-03-19T06:41:34.008Z,7.00
2023-03-19T06:44:23.121Z,7.00
2023-03-19T06:46:53.047Z,7.00
2023-03-19T06:49:23.765Z,7.00
2023-03-19T06:51:54.889Z,7.10
2023-03-19T06:54:23.605Z,7.10
2023-03-19T06:56:52.442Z,7.20
2023-03-19T06:59:21.416Z,7.20
2023-03-19T07:01:50.334Z,7.20
2023-03-19T07:04:19.034Z,7.20
2023-03-19T07:06:47.392Z,7.20
2023-03-19T07:09:17.605Z,7.20
2023-03-19T07:11:47.235Z,7.20
2023-03-19T07:14:16.994Z,7.20
2023-03-19T07:16:45.574Z,7.20
2023-03-19T07:19:14.296Z,7.30
2023-03-19T07:21:43.420Z,7.30
2023-03-19T07:24:12.822Z,7.40
2023-03-19T07:26:44.206Z,7.40
2023-03-19T07:29:12.568Z,7.40
2023-03-19T07:31:42.689Z,7.40
2023-03-19T07:34:11.639Z,7.40
2023-03-19T07:36:40.446Z,7.50
2023-03-19T07:39:12.127Z,7.50
2023-03-19T07:41:45.462Z,7.40
2023-03-19T07:44:17.348Z,7.40
2023-03-19T07:46:47.536Z,7.40
2023-03-19T07:49:15.999Z,7.50
2023-03-19T07:51:48.130Z,7.50
2023-03-19T07:54:17.810Z,7.50
2023-03-19T07:56:50.302Z,7.50
2023-03-19T07:59:23.220Z,7.60
2023-03-19T08:01:53.243Z,7.60
2023-03-19T08:04:22.651Z,7.60
2023-03-19T08:06:51.654Z,7.70
2023-03-19T08:09:20.508Z,7.70
2023-03-19T08:11:51.222Z,7.80
2023-03-19T08:14:22.551Z,7.80
2023-03-19T08:16:51.730Z,7.80
2023-03-19T08:20:11.255Z,7.80
2023-03-19T08:22:42.033Z,8.00
2023-03-19T08:25:13.776Z,8.00
2023-03-19T08:27:44.965Z,8.10
2023-03-19T08:30:14.473Z,8.20
2023-03-19T08:32:45.088Z,8.30
2023-03-19T08:35:17.538Z,8.40
2023-03-19T08:37:46.839Z,8.50
2023-03-19T08:40:20.033Z,8.50
2023-03-19T08:42:51.334Z,8.60
2023-03-19T08:45:22.737Z,8.60
2023-03-19T08:47:52.555Z,8.60
2023-03-19T08:50:22.006Z,8.60
2023-03-19T08:52:53.974Z,8.60
2023-03-19T08:55:22.658Z,8.60
2023-03-19T08:57:52.907Z,8.60
2023-03-19T09:00:22.106Z,8.70
2023-03-19T09:02:51.371Z,8.70
2023-03-19T09:05:22.749Z,8.70
2023-03-19T09:07:53.455Z,8.70
2023-03-19T09:10:22.395Z,8.80
2023-03-19T09:12:52.364Z,8.80
2023-03-19T09:15:21.487Z,8.90
2023-03-19T09:17:50.123Z,8.90
2023-03-19T09:20:22.988Z,9.00
2023-03-19T09:22:51.951Z,9.10
2023-03-19T09:25:20.818Z,9.10
2023-03-19T09:27:51.679Z,9.20
2023-03-19T09:30:22.279Z,9.30
2023-03-19T09:32:51.237Z,9.50
2023-03-19T09:35:20.230Z,9.60
2023-03-19T09:37:51.935Z,9.80
2023-03-19T09:40:25.822Z,9.90
2023-03-19T09:43:02.449Z,10.10
2023-03-19T09:45:33.844Z,10.30
2023-03-19T09:48:06.836Z,10.40
2023-03-19T09:50:37.686Z,10.50
2023-03-19T09:53:14.312Z,10.60
2023-03-19T09:55:47.055Z,10.60
2023-03-19T09:58:19.300Z,10.60
2023-03-19T10:00:52.211Z,10.70
2023-03-19T10:03:45.616Z,10.70
2023-03-19T10:06:31.519Z,10.80
2023-03-19T10:09:22.995Z,10.90
2023-03-19T10:12:04.934Z,10.90
2023-03-19T10:15:04.970Z,10.90
2023-03-19T10:17:42.428Z,10.90
2023-03-19T10:20:19.170Z,10.90
2023-03-19T10:22:53.074Z,10.80
2023-03-19T10:25:24.925Z,10.80
2023-03-19T10:28:02.619Z,10.70
2023-03-19T10:30:39.243Z,10.80
2023-03-19T10:33:18.935Z,10.80
2023-03-19T10:35:50.747Z,10.80
2023-03-19T10:38:23.077Z,10.90
2023-03-19T10:41:02.507Z,11.00
2023-03-19T10:43:34.767Z,11.20
2023-03-19T10:46:03.997Z,11.40
2023-03-19T10:48:44.278Z,11.50
2023-03-19T10:51:18.692Z,11.70
2023-03-19T10:53:49.279Z,11.80
2023-03-19T10:56:23.346Z,12.10
2023-03-19T10:59:00.685Z,12.10
2023-03-19T11:01:33.730Z,12.10
2023-03-19T11:04:13.034Z,12.20
2023-03-19T11:06:45.723Z,12.20
2023-03-19T11:09:20.307Z,12.10
2023-03-19T11:11:51.307Z,12.20
2023-03-19T11:14:23.310Z,12.30
2023-03-19T11:17:25.906Z,12.10
2023-03-19T11:19:57.670Z,12.20
2023-03-19T11:22:28.585Z,12.20
2023-03-19T11:25:01.280Z,11.90
2023-03-19T11:27:32.110Z,11.80
2023-03-19T11:30:03.328Z,11.80
2023-03-19T11:32:59.420Z,11.70
2023-03-19T11:35:35.024Z,11.90
2023-03-19T11:38:05.086Z,12.00
2023-03-19T11:40:45.346Z,12.10
2023-03-19T11:43:42.028Z,12.20
2023-03-19T11:46:23.880Z,12.20
2023-03-19T11:49:20.600Z,12.30
2023-03-19T11:52:11.416Z,12.30
2023-03-19T11:54:51.353Z,12.30
2023-03-19T11:57:28.444Z,12.30
2023-03-19T12:00:11.136Z,12.40
2023-03-19T12:03:14.118Z,12.30
2023-03-19T12:05:52.644Z,12.20
2023-03-19T12:08:33.126Z,12.10
2023-03-19T12:11:12.602Z,12.10
2023-03-19T12:13:54.343Z,12.10
2023-03-19T12:16:30.555Z,12.10
2023-03-19T12:19:21.631Z,12.20
2023-03-19T12:22:03.462Z,12.10
2023-03-19T12:24:42.322Z,12.10
2023-03-19T12:27:24.055Z,12.10
2023-03-19T12:30:00.397Z,12.10
2023-03-19T12:32:43.629Z,11.90
2023-03-19T12:35:17.059Z,11.90
2023-03-19T12:37:53.697Z,11.90
2023-03-19T12:40:31.205Z,12.00
2023-03-19T12:43:03.739Z,12.10
2023-03-19T12:45:36.415Z,12.20
2023-03-19T12:48:11.346Z,12.30
2023-03-19T12:50:44.640Z,12.40
2023-03-19T12:53:26.580Z,12.00
2023-03-19T12:56:01.900Z,12.10
2023-03-19T12:58:41.219Z,12.10
2023-03-19T13:01:15.673Z,12.10
2023-03-19T13:03:55.979Z,12.00
2023-03-19T13:06:28.730Z,12.00
2023-03-19T13:09:05.045Z,12.00
2023-03-19T13:11:45.612Z,12.00
2023-03-19T13:14:21.339Z,12.10
2023-03-19T13:16:57.016Z,12.30
2023-03-19T13:19:35.578Z,12.20
2023-03-19T13:22:09.901Z,12.60
2023-03-19T13:24:41.451Z,13.30
2023-03-19T13:27:14.845Z,13.90
2023-03-19T13:30:00.727Z,14.20
2023-03-19T13:32:38.723Z,14.30
2023-03-19T13:35:20.672Z,14.40
2023-03-19T13:37:53.414Z,14.40
2023-03-19T13:40:46.426Z,14.30
2023-03-19T13:43:52.484Z,14.20
2023-03-19T13:46:45.292Z,14.00
2023-03-19T13:49:35.656Z,13.90
2023-03-19T13:52:58.396Z,13.70
2023-03-19T13:55:34.833Z,14.20
2023-03-19T13:58:39.355Z,15.00
2023-03-19T14:01:10.841Z,15.30
2023-03-19T14:03:54.407Z,15.20
2023-03-19T14:06:36.083Z,15.10
2023-03-19T14:09:06.217Z,14.80
2023-03-19T14:11:38.664Z,15.00
2023-03-19T14:14:10.286Z,15.10
2023-03-19T14:16:47.746Z,14.60
2023-03-19T14:19:20.873Z,14.30
2023-03-19T14:22:10.932Z,14.30
2023-03-19T14:24:58.843Z,14.00
2023-03-19T14:27:33.570Z,14.10
2023-03-19T14:30:10.074Z,14.40
2023-03-19T14:32:42.569Z,14.50
2023-03-19T14:35:16.699Z,14.60
2023-03-19T14:37:52.526Z,14.60
2023-03-19T14:40:24.208Z,14.50
2023-03-19T14:43:04.101Z,14.30
2023-03-19T14:45:59.125Z,14.30
2023-03-19T14:49:06.015Z,14.70
2023-03-19T14:51:51.993Z,15.40
2023-03-19T14:54:29.963Z,15.50
2023-03-19T14:56:59.223Z,15.70
2023-03-19T14:59:38.629Z,15.90
2023-03-19T15:02:29.066Z,16.00
2023-03-19T15:05:00.634Z,15.90
2023-03-19T15:07:35.422Z,16.20
2023-03-19T15:10:08.739Z,16.60
2023-03-19T15:13:02.823Z,16.20
2023-03-19T15:15:45.234Z,16.10
2023-03-19T15:18:17.174Z,15.80
2023-03-19T15:20:50.148Z,15.50
2023-03-19T15:23:27.321Z,15.00
2023-03-19T15:25:58.216Z,14.70
2023-03-19T15:28:32.308Z,14.40
2023-03-19T15:31:28.659Z,14.30
2023-03-19T15:33:55.986Z,14.40
2023-03-19T15:36:30.228Z,14.30
2023-03-19T15:39:04.145Z,14.30
2023-03-19T15:41:40.072Z,14.30
2023-03-19T15:44:13.875Z,14.20
2023-03-19T15:46:45.908Z,14.10
2023-03-19T15:49:23.116Z,13.90
2023-03-19T15:51:57.208Z,13.90
2023-03-19T15:54:25.954Z,13.90
2023-03-19T15:56:54.959Z,13.90
2023-03-19T15:59:30.091Z,13.90
2023-03-19T16:02:04.945Z,13.70
2023-03-19T16:05:01.908Z,13.60
2023-03-19T16:07:28.595Z,13.50
2023-03-19T16:09:58.269Z,13.60
2023-03-19T16:12:38.806Z,13.60
2023-03-19T16:15:25.898Z,13.60
2023-03-19T16:17:56.552Z,13.50
2023-03-19T16:20:25.896Z,13.40
2023-03-19T16:22:58.553Z,13.40
2023-03-19T16:25:31.901Z,13.30
2023-03-19T16:28:01.196Z,13.00
2023-03-19T16:30:33.450Z,12.80
2023-03-19T16:33:05.922Z,12.60
2023-03-19T16:35:36.813Z,12.40
2023-03-19T16:38:14.853Z,12.30
2023-03-19T16:40:45.863Z,12.10
2023-03-19T16:43:21.001Z,12.00
2023-03-19T16:45:54.456Z,11.80
2023-03-19T16:48:24.878Z,11.80
2023-03-19T16:50:53.810Z,11.70
2023-03-19T16:53:25.790Z,11.60
2023-03-19T16:55:56.788Z,11.70
2023-03-19T16:58:31.082Z,11.60
2023-03-19T17:01:00.698Z,11.50
2023-03-19T17:03:31.247Z,11.40
2023-03-19T17:05:59.904Z,11.30
2023-03-19T17:08:28.999Z,11.20
2023-03-19T17:10:57.380Z,11.10
2023-03-19T17:13:30.215Z,11.00
2023-03-19T17:16:02.580Z,11.00
2023-03-19T17:18:35.027Z,10.90
2023-03-19T17:21:09.453Z,10.90
2023-03-19T17:23:38.694Z,10.80
2023-03-19T17:26:16.287Z,10.80
2023-03-19T17:28:45.207Z,10.80
2023-03-19T17:31:28.485Z,10.80
2023-03-19T17:34:04.324Z,10.70
2023-03-19T17:36:34.034Z,10.50
2023-03-19T17:39:02.899Z,10.40
2023-03-19T17:41:33.489Z,10.30
2023-03-19T17:44:05.001Z,10.20
2023-03-19T17:46:39.694Z,10.10
2023-03-19T17:49:14.291Z,10.10
2023-03-19T17:51:43.276Z,10.20
2023-03-19T17:54:13.454Z,10.20
2023-03-19T17:56:43.494Z,10.20
2023-03-19T17:59:12.422Z,10.20
2023-03-19T18:01:44.792Z,10.20
2023-03-19T18:04:18.235Z,10.10
2023-03-19T18:06:51.041Z,9.90
2023-03-19T18:09:23.842Z,9.70
2023-03-19T18:11:53.630Z,9.40
2023-03-19T18:14:23.321Z,9.20
2023-03-19T18:16:52.459Z,9.10
2023-03-19T18:19:29.325Z,9.00
2023-03-19T18:21:59.173Z,8.70
2023-03-19T18:24:28.051Z,8.40
2023-03-19T18:26:57.011Z,8.50
2023-03-19T18:29:25.472Z,8.60
2023-03-19T18:31:54.125Z,8.70
2023-03-19T18:34:25.517Z,8.80
2023-03-19T18:36:54.323Z,8.90
2023-03-19T18:39:23.092Z,8.90
2023-03-19T18:41:51.996Z,9.00
2023-03-19T18:44:24.209Z,9.00
2023-03-19T18:46:55.496Z,9.10
2023-03-19T18:49:28.896Z,9.10
2023-03-19T18:52:03.198Z,9.20
2023-03-19T18:54:33.059Z,9.30
2023-03-19T18:57:03.405Z,9.40
2023-03-19T18:59:35.001Z,9.50
2023-03-19T19:02:13.845Z,9.50
2023-03-19T19:04:43.603Z,9.60
2023-03-19T19:07:15.033Z,9.60
2023-03-19T19:09:44.595Z,9.70
2023-03-19T19:12:15.678Z,9.70
2023-03-19T19:14:45.254Z,9.80
2023-03-19T19:17:21.501Z,9.80
2023-03-19T19:19:53.046Z,9.80
2023-03-19T19:22:22.366Z,9.80
2023-03-19T19:24:51.534Z,9.80
2023-03-19T19:27:22.998Z,9.80
2023-03-19T19:29:52.503Z,9.80
2023-03-19T19:32:26.271Z,9.90
2023-03-19T19:34:56.924Z,9.80
2023-03-19T19:37:25.727Z,9.80
2023-03-19T19:39:54.684Z,9.90
2023-03-19T19:42:25.476Z,9.80
2023-03-19T19:44:58.717Z,9.80
2023-03-19T19:47:28.351Z,9.90
2023-03-19T19:49:58.402Z,9.80
2023-03-19T19:52:26.797Z,9.90
2023-03-19T19:54:55.970Z,9.90
2023-03-19T19:57:25.585Z,9.90
2023-03-19T19:59:56.057Z,9.90
2023-03-19T20:02:26.319Z,9.90
2023-03-19T20:04:55.541Z,9.90
2023-03-19T20:07:25.890Z,9.90
2023-03-19T20:09:54.688Z,9.90
2023-03-19T20:12:30.129Z,10.00
2023-03-19T20:14:59.702Z,9.90
2023-03-19T20:17:28.961Z,9.90
2023-03-19T20:20:00.639Z,9.90
2023-03-19T20:22:31.314Z,9.90
2023-03-19T20:24:59.733Z,9.90
2023-03-19T20:27:35.989Z,9.90
2023-03-19T20:30:08.331Z,9.90
2023-03-19T20:32:42.611Z,9.90
2023-03-19T20:35:18.230Z,9.90
2023-03-19T20:37:48.270Z,9.90
2023-03-19T20:40:17.913Z,9.90
2023-03-19T20:42:49.861Z,9.90
2023-03-19T20:45:21.298Z,9.90
2023-03-19T20:47:52.860Z,9.90
2023-03-19T20:50:28.171Z,9.80
2023-03-19T20:53:02.275Z,9.80
2023-03-19T20:55:33.087Z,9.80
2023-03-19T20:58:03.951Z,9.80
2023-03-19T21:00:35.217Z,9.80
2023-03-19T21:03:06.002Z,9.80
2023-03-19T21:05:37.236Z,9.80
2023-03-19T21:08:16.291Z,9.80
2023-03-19T21:10:48.262Z,9.80
2023-03-19T21:13:19.282Z,9.80
2023-03-19T21:15:49.696Z,9.70
2023-03-19T21:18:18.939Z,9.60
2023-03-19T21:20:51.235Z,9.60
2023-03-19T21:23:29.141Z,9.60
2023-03-19T21:25:57.995Z,9.50
2023-03-19T21:28:30.582Z,9.50
2023-03-19T21:30:59.549Z,9.50
2023-03-19T21:33:30.136Z,9.50
2023-03-19T21:36:00.399Z,9.50
2023-03-19T21:38:33.182Z,9.50
2023-03-19T21:41:06.325Z,9.50
2023-03-19T21:43:37.405Z,9.50
2023-03-19T21:46:22.777Z,9.50
2023-03-19T21:48:54.621Z,9.50
2023-03-19T21:51:26.418Z,9.50
2023-03-19T21:53:56.787Z,9.40
2023-03-19T21:56:33.129Z,9.40
2023-03-19T21:59:04.746Z,9.40
2023-03-19T22:01:34.312Z,9.40
2023-03-19T22:04:03.113Z,9.40
2023-03-19T22:06:32.962Z,9.50
2023-03-19T22:09:04.369Z,9.50
2023-03-19T22:11:36.142Z,9.50
2023-03-19T22:14:14.713Z,9.50
2023-03-19T22:16:44.627Z,9.50
2023-03-19T22:19:17.994Z,9.40
2023-03-19T22:21:47.347Z,9.40
2023-03-19T22:24:18.711Z,9.40
2023-03-19T22:26:49.335Z,9.30
2023-03-19T22:29:20.559Z,9.30
2023-03-19T22:31:49.967Z,9.30
2023-03-19T22:34:22.252Z,9.30
2023-03-19T22:36:51.390Z,9.20
2023-03-19T22:39:21.289Z,9.20
2023-03-19T22:41:51.746Z,9.20
2023-03-19T22:44:27.012Z,9.20
2023-03-19T22:46:58.482Z,9.20
2023-03-19T22:49:28.044Z,9.20
2023-03-19T22:51:57.973Z,9.20
2023-03-19T22:54:28.056Z,9.20
2023-03-19T22:56:56.649Z,9.20
2023-03-19T22:59:28.175Z,9.20
2023-03-19T23:01:58.019Z,9.20
2023-03-19T23:04:30.479Z,9.20
2023-03-19T23:07:01.529Z,9.20
2023-03-19T23:09:33.698Z,9.10
2023-03-19T23:12:02.276Z,9.10
2023-03-19T23:14:31.522Z,9.10
2023-03-19T23:17:06.596Z,9.10
2023-03-19T23:19:38.693Z,9.10
2023-03-19T23:22:09.941Z,9.10
2023-03-19T23:24:40.664Z,9.10
2023-03-19T23:27:23.005Z,9.10
2023-03-19T23:29:53.360Z,9.10
2023-03-19T23:32:22.107Z,9.10
2023-03-19T23:35:00.588Z,9.00
2023-03-19T23:37:33.945Z,9.00
2023-03-19T23:40:07.877Z,9.00
2023-03-19T23:42:39.641Z,9.00
2023-03-19T23:45:21.625Z,9.00
2023-03-19T23:47:51.167Z,9.00
2023-03-19T23:50:19.727Z,9.00
2023-03-19T23:52:48.617Z,9.00
2023-03-19T23:55:22.352Z,9.00
2023-03-19T23:57:51.437Z,9.00
